Accueil
METAR-TAF:

METAR-TAF

Aéroports :

MidCoast Regional Airport / Wright Army Airfield

Hinesville, Géorgie, États-Unis

latitude: 31-53N, longitude: 081-34W, altitude: 14 m

Observation

Le bulletin a été fait il y a 1 heure et 0 minutes, à 00:56 UTC
Vent calme
Température 14°C
Humidité 94%
Pression 1018 hPa
Visibilité: 16.1 km
Ciel clair

METAR: KLHW 120056Z AUTO 00000KT 10SM CLR 14/13 A3007 RMK AO2 SLP186 T01440134 $

Heure: 20:56 (01:56 UTC)


TAF: absent

Observations et prévisions météorologiques de plus de 4000 aéroports (messages METAR et TAF).

Les stations disponibles sont représentées par des disques jaunes et rouges sur la carte.

Passer la souris dessus pour voir le nom de la station.

Cliquer dessus pour voir les observations et prévisions météorologiques.

Pour changer de carte: cliquez sur les boutons verts avec une croix noire pour zoomer, sur le bouton vert avec un tiret pour effectuer un zoom arrière, ou sur les flèches vertes pour les cartes adjacentes.


METAR-TAF: